Time;durP1;ratioP1;P1;durP2;ratioP2;P2;SDS_P1;SDS_P2;PMS_P1;PMS_P2;Temp;Humidity;BMP_temperature;BMP_pressure;BME280_temperature;BME280_humidity;BME280_pressure;Samples;Min_cycle;Max_cycle;Signal;HPM_P1;HPM_P2
2022/11/12 00:01:08;;;;;;;19.57;14.87;;;;;;;;;;4471611;32;20662;-88
2022/11/12 00:03:41;;;;;;;22.03;16.63;;;;;;;;;;4471532;32;20211;-87
2022/11/12 00:06:08;;;;;;;19.17;14.43;;;;;;;;;;4471280;32;20269;-88
2022/11/12 00:08:35;;;;;;;18.80;14.20;;;;;;;;;;4471828;32;20212;-88
2022/11/12 00:11:03;;;;;;;20.43;14.90;;;;;;;;;;4471169;32;20668;-86
2022/11/12 00:13:30;;;;;;;18.93;15.27;;;;;;;;;;4471409;32;20220;-85
2022/11/12 00:16:01;;;;;;;21.17;16.40;;;;;;;;;;4475782;32;20711;-88
2022/11/12 00:18:27;;;;;;;19.20;14.63;;;;;;;;;;4473194;32;20291;-88
2022/11/12 00:20:54;;;;;;;20.60;15.57;;;;;;;;;;4472779;32;20222;-88
2022/11/12 00:23:21;;;;;;;21.93;17.93;;;;;;;;;;4474929;32;20196;-86
2022/11/12 00:25:48;;;;;;;19.17;15.73;;;;;;;;;;4474827;32;20226;-88
2022/11/12 00:28:14;;;;;;;20.50;16.87;;;;;;;;;;4473419;32;20214;-88
2022/11/12 00:30:41;;;;;;;21.60;17.00;;;;;;;;;;4472226;32;20260;-89
2022/11/12 00:33:09;;;;;;;22.60;16.87;;;;;;;;;;4472394;32;20525;-85
2022/11/12 00:35:37;;;;;;;20.10;16.20;;;;;;;;;;4471907;32;20204;-86
2022/11/12 00:38:05;;;;;;;24.70;16.30;;;;;;;;;;4472187;32;20195;-87
2022/11/12 00:40:32;;;;;;;21.20;15.23;;;;;;;;;;4472473;32;20197;-88
2022/11/12 00:42:59;;;;;;;19.83;16.37;;;;;;;;;;4471280;32;20200;-88
2022/11/12 00:45:26;;;;;;;21.93;16.27;;;;;;;;;;4471828;32;20224;-87
2022/11/12 00:47:55;;;;;;;25.37;18.33;;;;;;;;;;4471616;32;20285;-86
2022/11/12 00:50:24;;;;;;;26.23;16.57;;;;;;;;;;4471230;32;20217;-86
2022/11/12 00:52:52;;;;;;;26.70;16.93;;;;;;;;;;4470348;32;20295;-86
2022/11/12 00:55:19;;;;;;;23.13;17.47;;;;;;;;;;4471450;32;20220;-87
2022/11/12 00:57:46;;;;;;;20.83;15.87;;;;;;;;;;4470653;32;20204;-85
2022/11/12 01:00:16;;;;;;;21.90;16.97;;;;;;;;;;4470596;32;20220;-86
2022/11/12 01:02:43;;;;;;;23.10;17.33;;;;;;;;;;4471100;32;20244;-88
2022/11/12 01:05:10;;;;;;;25.07;17.93;;;;;;;;;;4470577;32;20292;-87
2022/11/12 01:07:39;;;;;;;20.73;16.63;;;;;;;;;;4471218;32;20222;-86
2022/11/12 01:10:09;;;;;;;25.37;17.87;;;;;;;;;;4470454;32;20220;-86
2022/11/12 01:12:37;;;;;;;25.93;18.07;;;;;;;;;;4471175;32;20214;-89
2022/11/12 01:15:04;;;;;;;27.47;17.30;;;;;;;;;;4470287;32;20287;-86
2022/11/12 01:17:31;;;;;;;22.77;16.10;;;;;;;;;;4470641;32;20205;-87
2022/11/12 01:19:59;;;;;;;25.00;18.10;;;;;;;;;;4470284;32;20211;-86
2022/11/12 01:22:26;;;;;;;23.33;17.40;;;;;;;;;;4470518;32;20200;-87
2022/11/12 01:24:56;;;;;;;21.40;16.53;;;;;;;;;;4470633;32;20230;-87
2022/11/12 01:27:25;;;;;;;20.97;16.33;;;;;;;;;;4470224;32;20215;-87
2022/11/12 01:29:53;;;;;;;21.20;16.60;;;;;;;;;;4470487;32;20218;-86
2022/11/12 01:32:20;;;;;;;21.87;16.80;;;;;;;;;;4468965;32;20249;-86
2022/11/12 01:34:49;;;;;;;21.23;16.33;;;;;;;;;;4470057;32;20200;-87
2022/11/12 01:37:17;;;;;;;21.57;14.97;;;;;;;;;;4470183;32;20235;-88
2022/11/12 01:39:46;;;;;;;21.47;15.33;;;;;;;;;;4469909;32;20234;-87
2022/11/12 01:42:15;;;;;;;22.13;16.87;;;;;;;;;;4469904;32;20300;-88
2022/11/12 01:44:44;;;;;;;18.80;15.43;;;;;;;;;;4469795;32;20226;-87
2022/11/12 01:47:22;;;;;;;20.43;14.67;;;;;;;;;;4469951;32;20232;-88
2022/11/12 01:49:57;;;;;;;18.13;14.07;;;;;;;;;;4470110;32;20615;-87
2022/11/12 01:52:29;;;;;;;19.43;14.57;;;;;;;;;;4469830;32;20727;-87
2022/11/12 01:55:05;;;;;;;24.43;16.20;;;;;;;;;;4469481;32;20204;-87
2022/11/12 01:57:38;;;;;;;20.33;15.20;;;;;;;;;;4469971;32;20229;-87
2022/11/12 02:00:09;;;;;;;20.13;15.97;;;;;;;;;;4470219;32;20200;-87
2022/11/12 02:02:37;;;;;;;22.03;16.03;;;;;;;;;;4469484;32;20216;-88
2022/11/12 02:05:07;;;;;;;24.23;18.40;;;;;;;;;;4469988;32;20611;-87
2022/11/12 02:07:38;;;;;;;24.23;18.20;;;;;;;;;;4469653;32;20301;-88
2022/11/12 02:10:07;;;;;;;27.63;18.83;;;;;;;;;;4469664;32;20200;-87
2022/11/12 02:15:27;;;;;;;39.93;23.17;;;;;;;;;;4469490;32;20211;-88
2022/11/12 02:17:54;;;;;;;31.50;20.37;;;;;;;;;;4469273;32;20290;-87
2022/11/12 02:20:23;;;;;;;23.50;17.00;;;;;;;;;;4469101;32;20216;-88
2022/11/12 02:22:51;;;;;;;21.73;15.13;;;;;;;;;;4469411;32;20658;-88
2022/11/12 02:25:22;;;;;;;21.77;14.70;;;;;;;;;;4469633;32;20227;-88
2022/11/12 02:27:50;;;;;;;21.23;15.20;;;;;;;;;;4469184;32;20223;-87
2022/11/12 02:30:17;;;;;;;21.63;15.43;;;;;;;;;;4469099;32;20257;-88
2022/11/12 02:32:45;;;;;;;16.57;13.83;;;;;;;;;;4469352;32;20216;-88
2022/11/12 02:35:11;;;;;;;18.37;14.93;;;;;;;;;;4469592;32;20218;-87
2022/11/12 02:37:38;;;;;;;19.77;14.37;;;;;;;;;;4469197;32;20220;-88
2022/11/12 02:40:09;;;;;;;21.43;16.10;;;;;;;;;;4469149;32;20279;-88
2022/11/12 02:42:36;;;;;;;27.40;16.17;;;;;;;;;;4469293;32;20216;-88
2022/11/12 02:45:03;;;;;;;20.40;15.20;;;;;;;;;;4469909;32;20633;-87
2022/11/12 02:47:30;;;;;;;22.67;15.53;;;;;;;;;;4469061;32;20223;-87
2022/11/12 02:49:58;;;;;;;20.93;14.90;;;;;;;;;;4469189;32;20262;-88
2022/11/12 02:52:25;;;;;;;19.60;14.70;;;;;;;;;;4468835;32;20249;-88
2022/11/12 02:54:55;;;;;;;21.00;16.07;;;;;;;;;;4469329;32;20222;-88
2022/11/12 02:57:23;;;;;;;22.17;16.10;;;;;;;;;;4469049;32;20220;-87
2022/11/12 02:59:50;;;;;;;24.03;16.27;;;;;;;;;;4468789;32;20236;-88
2022/11/12 03:02:17;;;;;;;25.00;16.80;;;;;;;;;;4469030;32;20224;-88
2022/11/12 03:04:44;;;;;;;24.63;17.13;;;;;;;;;;4469123;32;20706;-87
2022/11/12 03:07:14;;;;;;;23.67;17.80;;;;;;;;;;4468065;32;20555;-88
2022/11/12 03:09:44;;;;;;;24.97;17.53;;;;;;;;;;4469082;32;20234;-88
2022/11/12 03:12:11;;;;;;;20.77;16.47;;;;;;;;;;4468658;32;20643;-87
2022/11/12 03:14:50;;;;;;;32.73;16.90;;;;;;;;;;4469087;32;20700;-88
2022/11/12 03:17:17;;;;;;;23.00;16.67;;;;;;;;;;4468721;32;20208;-88
2022/11/12 03:19:47;;;;;;;27.90;17.07;;;;;;;;;;4468703;32;20542;-88
2022/11/12 03:22:13;;;;;;;29.23;18.27;;;;;;;;;;4468837;32;20299;-88
2022/11/12 03:24:41;;;;;;;27.77;16.80;;;;;;;;;;4467761;32;20226;-88
2022/11/12 03:27:08;;;;;;;22.87;16.43;;;;;;;;;;4468579;32;20269;-88
2022/11/12 03:29:35;;;;;;;23.20;17.77;;;;;;;;;;4469096;32;20232;-89
2022/11/12 03:32:07;;;;;;;33.33;17.23;;;;;;;;;;4468886;32;20212;-88
2022/11/12 03:34:37;;;;;;;29.57;19.07;;;;;;;;;;4468943;32;20267;-88
2022/11/12 03:37:08;;;;;;;24.63;16.77;;;;;;;;;;4464275;32;20262;-87
2022/11/12 03:39:36;;;;;;;17.93;14.47;;;;;;;;;;4468581;32;20204;-88
2022/11/12 03:42:03;;;;;;;18.87;14.43;;;;;;;;;;4468592;32;20288;-88
2022/11/12 03:44:29;;;;;;;20.07;14.67;;;;;;;;;;4468763;32;20223;-88
2022/11/12 03:46:56;;;;;;;19.27;13.23;;;;;;;;;;4468217;32;20215;-88
2022/11/12 03:49:27;;;;;;;17.10;11.70;;;;;;;;;;4468370;32;20236;-88
2022/11/12 03:51:54;;;;;;;15.60;12.33;;;;;;;;;;4468579;32;20220;-88
2022/11/12 03:54:21;;;;;;;21.43;14.63;;;;;;;;;;4468390;32;20656;-88
2022/11/12 03:56:48;;;;;;;18.87;11.87;;;;;;;;;;4468502;32;20563;-88
2022/11/12 03:59:15;;;;;;;15.63;11.90;;;;;;;;;;4468753;32;20345;-88
2022/11/12 04:01:42;;;;;;;14.70;11.27;;;;;;;;;;4468426;32;20219;-88
2022/11/12 04:04:10;;;;;;;15.37;10.50;;;;;;;;;;4468443;32;20199;-88
2022/11/12 04:09:23;;;;;;;14.10;10.07;;;;;;;;;;4468814;32;20656;-87
2022/11/12 04:11:50;;;;;;;11.70;9.57;;;;;;;;;;4469216;32;20729;-87
2022/11/12 04:14:16;;;;;;;11.40;9.20;;;;;;;;;;4467291;32;20268;-87
2022/11/12 04:22:14;;;;;;;14.90;8.30;;;;;;;;;;4471273;32;20319;-87
2022/11/12 04:27:29;;;;;;;12.63;8.93;;;;;;;;;;4472117;32;20248;-88
2022/11/12 04:32:50;;;;;;;12.77;8.80;;;;;;;;;;4471176;32;20202;-87
2022/11/12 04:35:18;;;;;;;11.93;8.47;;;;;;;;;;4471064;32;20670;-87
2022/11/12 04:37:47;;;;;;;11.83;8.80;;;;;;;;;;4471123;32;20311;-88
2022/11/12 04:46:00;;;;;;;16.07;9.33;;;;;;;;;;4422603;32;20282;-87
2022/11/12 04:48:32;;;;;;;12.43;9.20;;;;;;;;;;4422025;32;20252;-87
2022/11/12 04:52:03;;;;;;;9.33;7.77;;;;;;;;;;4445412;32;20661;-87
2022/11/12 04:53:51;;;;;;;15.40;8.13;;;;;;;;;;4470384;32;20236;-88
2022/11/12 04:56:24;;;;;;;11.40;8.43;;;;;;;;;;4470557;32;20212;-88
2022/11/12 04:58:51;;;;;;;12.97;8.40;;;;;;;;;;4470538;32;20220;-87
2022/11/12 05:01:18;;;;;;;17.40;9.17;;;;;;;;;;4470875;32;20237;-88
2022/11/12 05:03:45;;;;;;;11.40;8.97;;;;;;;;;;4469471;32;20302;-88
2022/11/12 05:08:55;;;;;;;10.07;8.17;;;;;;;;;;4470524;32;20250;-88
2022/11/12 05:11:21;;;;;;;9.27;7.07;;;;;;;;;;4471103;32;20230;-88
2022/11/12 05:13:49;;;;;;;12.07;7.67;;;;;;;;;;4470638;32;20216;-87
2022/11/12 05:16:17;;;;;;;12.40;9.40;;;;;;;;;;4470683;32;20195;-87
2022/11/12 05:18:44;;;;;;;14.70;11.73;;;;;;;;;;4470552;32;20652;-87
2022/11/12 05:23:59;;;;;;;13.23;10.17;;;;;;;;;;4470382;32;20315;-86
2022/11/12 05:26:26;;;;;;;11.37;8.17;;;;;;;;;;4470761;32;20225;-87
2022/11/12 05:28:54;;;;;;;14.20;11.30;;;;;;;;;;4470226;32;20241;-87
2022/11/12 05:31:22;;;;;;;13.97;10.00;;;;;;;;;;4470180;32;20200;-87
2022/11/12 05:33:49;;;;;;;15.13;10.73;;;;;;;;;;4470463;32;20238;-87
2022/11/12 05:36:16;;;;;;;10.97;8.73;;;;;;;;;;4470619;32;20204;-87
2022/11/12 05:38:43;;;;;;;12.43;9.13;;;;;;;;;;4470376;32;20216;-88
2022/11/12 05:41:13;;;;;;;12.50;7.13;;;;;;;;;;4470182;32;20226;-87
2022/11/12 05:43:40;;;;;;;12.40;7.93;;;;;;;;;;4470492;32;20216;-88
2022/11/12 05:46:07;;;;;;;10.60;7.73;;;;;;;;;;4470484;32;20241;-87
2022/11/12 05:48:34;;;;;;;12.87;8.60;;;;;;;;;;4469890;32;20216;-88
2022/11/12 05:51:01;;;;;;;11.97;9.17;;;;;;;;;;4470411;32;20260;-87
2022/11/12 05:53:31;;;;;;;12.00;8.80;;;;;;;;;;4468979;32;20231;-87
2022/11/12 05:56:02;;;;;;;14.13;10.63;;;;;;;;;;4470468;32;20248;-88
2022/11/12 05:58:31;;;;;;;13.07;9.57;;;;;;;;;;4470435;32;20303;-87
2022/11/12 06:00:58;;;;;;;15.43;10.33;;;;;;;;;;4470147;32;20494;-87
2022/11/12 06:03:25;;;;;;;12.57;10.00;;;;;;;;;;4469961;32;20335;-87
2022/11/12 06:05:55;;;;;;;16.47;12.03;;;;;;;;;;4469893;32;20278;-88
2022/11/12 06:08:22;;;;;;;15.17;9.23;;;;;;;;;;4470489;32;20204;-87
2022/11/12 06:10:49;;;;;;;13.67;9.73;;;;;;;;;;4470228;32;20208;-87
2022/11/12 06:13:16;;;;;;;17.43;12.27;;;;;;;;;;4470403;32;20254;-87
2022/11/12 06:15:44;;;;;;;11.30;7.97;;;;;;;;;;4470384;32;20231;-88
2022/11/12 06:18:12;;;;;;;10.23;7.57;;;;;;;;;;4469327;32;20263;-89
2022/11/12 06:20:39;;;;;;;11.10;7.97;;;;;;;;;;4468507;32;20219;-88
2022/11/12 06:23:06;;;;;;;11.00;7.83;;;;;;;;;;4469173;32;20232;-88
2022/11/12 06:25:34;;;;;;;11.57;7.57;;;;;;;;;;4469090;32;20226;-87
2022/11/12 06:28:02;;;;;;;11.47;7.50;;;;;;;;;;4469706;32;20204;-87
2022/11/12 06:30:29;;;;;;;11.57;9.07;;;;;;;;;;4469743;32;20291;-87
2022/11/12 06:32:57;;;;;;;18.60;11.87;;;;;;;;;;4468221;32;20208;-87
2022/11/12 06:35:24;;;;;;;12.80;10.43;;;;;;;;;;4454948;32;20262;-88
2022/11/12 06:37:55;;;;;;;19.33;13.83;;;;;;;;;;4469156;32;20212;-87
2022/11/12 06:40:22;;;;;;;21.50;8.67;;;;;;;;;;4468717;32;20265;-87
2022/11/12 06:42:58;;;;;;;14.90;9.50;;;;;;;;;;4469646;32;20262;-87
2022/11/12 06:45:26;;;;;;;15.63;9.23;;;;;;;;;;4469163;32;20306;-87
2022/11/12 06:48:00;;;;;;;9.77;7.67;;;;;;;;;;4469442;32;20231;-87
2022/11/12 06:50:27;;;;;;;11.43;8.30;;;;;;;;;;4469013;32;20526;-87
2022/11/12 06:53:02;;;;;;;10.87;8.27;;;;;;;;;;4468728;32;20283;-87
2022/11/12 06:55:32;;;;;;;13.53;8.33;;;;;;;;;;4468909;32;20219;-87
2022/11/12 06:57:59;;;;;;;10.60;8.00;;;;;;;;;;4468691;32;20226;-87
2022/11/12 07:00:33;;;;;;;11.70;7.77;;;;;;;;;;4468777;32;20224;-87
2022/11/12 07:03:08;;;;;;;16.87;8.90;;;;;;;;;;4468110;32;20308;-87
2022/11/12 07:05:37;;;;;;;12.40;8.37;;;;;;;;;;4468226;32;20270;-87
2022/11/12 07:08:04;;;;;;;9.93;7.30;;;;;;;;;;4469040;32;20204;-87
2022/11/12 07:10:30;;;;;;;9.73;6.70;;;;;;;;;;4467849;32;20242;-87
2022/11/12 07:12:57;;;;;;;10.00;6.23;;;;;;;;;;4468713;32;20228;-87
2022/11/12 07:15:24;;;;;;;16.80;9.00;;;;;;;;;;4468878;32;20629;-88
2022/11/12 07:17:51;;;;;;;16.73;9.10;;;;;;;;;;4467886;32;20215;-87
2022/11/12 07:20:22;;;;;;;12.47;8.93;;;;;;;;;;4468631;32;20219;-89
2022/11/12 07:22:49;;;;;;;16.20;9.57;;;;;;;;;;4469134;32;20204;-87
2022/11/12 07:25:17;;;;;;;19.57;8.30;;;;;;;;;;4469320;32;20686;-87
2022/11/12 07:27:44;;;;;;;12.47;7.40;;;;;;;;;;4469091;32;20239;-88
2022/11/12 07:30:13;;;;;;;12.90;8.20;;;;;;;;;;4469726;32;20204;-87
2022/11/12 07:32:40;;;;;;;14.10;6.90;;;;;;;;;;4470462;32;20262;-87
2022/11/12 07:35:08;;;;;;;14.20;9.83;;;;;;;;;;4468374;32;20658;-87
2022/11/12 07:37:37;;;;;;;14.43;8.37;;;;;;;;;;4468990;32;20680;-87
2022/11/12 07:40:05;;;;;;;9.30;7.07;;;;;;;;;;4468535;32;20200;-86
2022/11/12 07:42:35;;;;;;;8.40;6.90;;;;;;;;;;4468594;32;20228;-88
2022/11/12 07:45:06;;;;;;;10.93;7.90;;;;;;;;;;4468723;32;20214;-88
2022/11/12 07:47:33;;;;;;;9.53;7.83;;;;;;;;;;4468249;32;20227;-88
2022/11/12 07:50:01;;;;;;;13.23;7.17;;;;;;;;;;4468799;32;20212;-87
2022/11/12 07:52:28;;;;;;;8.83;6.10;;;;;;;;;;4469290;32;20303;-87
2022/11/12 07:57:38;;;;;;;17.03;7.13;;;;;;;;;;4471867;32;20232;-87
2022/11/12 08:00:11;;;;;;;12.43;7.10;;;;;;;;;;4471790;32;20305;-87
2022/11/12 08:02:37;;;;;;;8.90;6.83;;;;;;;;;;4471617;32;20284;-87
2022/11/12 08:05:07;;;;;;;14.23;5.63;;;;;;;;;;4471275;32;20200;-87
2022/11/12 08:07:33;;;;;;;10.13;6.80;;;;;;;;;;4470989;32;20231;-87
2022/11/12 08:10:02;;;;;;;10.97;6.20;;;;;;;;;;4471076;32;20548;-87
2022/11/12 08:12:29;;;;;;;16.33;9.10;;;;;;;;;;4471770;32;20288;-87
2022/11/12 08:14:56;;;;;;;24.57;11.90;;;;;;;;;;4471286;32;20196;-87
2022/11/12 08:17:23;;;;;;;12.93;8.13;;;;;;;;;;4471227;32;20201;-87
2022/11/12 08:19:54;;;;;;;18.83;9.67;;;;;;;;;;4471036;32;20265;-87
2022/11/12 08:22:20;;;;;;;12.17;7.57;;;;;;;;;;4471100;32;20205;-87
2022/11/12 08:24:48;;;;;;;10.90;9.00;;;;;;;;;;4470320;32;20235;-87
2022/11/12 08:27:17;;;;;;;12.17;7.03;;;;;;;;;;4471099;32;20289;-87
2022/11/12 08:29:47;;;;;;;10.30;7.17;;;;;;;;;;4471484;32;20253;-88
2022/11/12 08:32:15;;;;;;;9.93;7.23;;;;;;;;;;4471379;32;20236;-89
2022/11/12 08:34:42;;;;;;;36.20;16.67;;;;;;;;;;4469675;32;20211;-88
2022/11/12 08:37:09;;;;;;;22.83;12.27;;;;;;;;;;4471340;32;20205;-87
2022/11/12 08:39:38;;;;;;;16.03;8.40;;;;;;;;;;4470928;32;20261;-88
2022/11/12 08:42:05;;;;;;;13.47;8.87;;;;;;;;;;4471088;32;20285;-87
2022/11/12 08:44:33;;;;;;;20.53;10.80;;;;;;;;;;4470409;32;20219;-87
2022/11/12 08:47:00;;;;;;;22.30;8.50;;;;;;;;;;4470586;32;20652;-87
2022/11/12 08:49:27;;;;;;;12.53;5.90;;;;;;;;;;4470388;32;20223;-87
2022/11/12 08:51:54;;;;;;;14.90;10.47;;;;;;;;;;4470559;32;20228;-87
2022/11/12 08:54:24;;;;;;;13.07;9.57;;;;;;;;;;4474115;32;20232;-88
2022/11/12 08:56:54;;;;;;;11.57;6.43;;;;;;;;;;4473478;32;20204;-87
2022/11/12 08:59:20;;;;;;;7.87;5.33;;;;;;;;;;4471025;32;20621;-87
2022/11/12 09:01:48;;;;;;;10.00;7.67;;;;;;;;;;4483846;32;20161;-86
2022/11/12 09:04:15;;;;;;;10.10;6.60;;;;;;;;;;4473588;32;20279;-87
2022/11/12 09:06:42;;;;;;;7.37;5.57;;;;;;;;;;4469832;32;20265;-87
2022/11/12 09:09:09;;;;;;;8.10;5.50;;;;;;;;;;4469975;32;20596;-86
2022/11/12 09:11:36;;;;;;;6.67;5.20;;;;;;;;;;4470528;32;20524;-87
2022/11/12 09:14:03;;;;;;;7.60;5.50;;;;;;;;;;4469928;32;20250;-87
2022/11/12 09:16:30;;;;;;;9.40;6.50;;;;;;;;;;4470374;32;20614;-87
2022/11/12 09:18:58;;;;;;;9.40;6.70;;;;;;;;;;4470416;32;20574;-87
2022/11/12 09:21:27;;;;;;;13.27;7.73;;;;;;;;;;4470484;32;20637;-87
2022/11/12 09:23:54;;;;;;;12.37;8.03;;;;;;;;;;4470009;32;20276;-88
2022/11/12 09:26:21;;;;;;;24.63;10.83;;;;;;;;;;4470078;32;20256;-87
2022/11/12 09:28:48;;;;;;;18.30;10.37;;;;;;;;;;4469769;32;20219;-88
2022/11/12 09:31:15;;;;;;;26.93;15.40;;;;;;;;;;4470423;32;20201;-87
2022/11/12 09:33:42;;;;;;;16.80;10.03;;;;;;;;;;4468939;32;20327;-88
2022/11/12 09:36:10;;;;;;;18.63;9.10;;;;;;;;;;4470092;32;20212;-87
2022/11/12 09:38:42;;;;;;;18.23;9.87;;;;;;;;;;4469646;32;20228;-87
2022/11/12 09:41:17;;;;;;;33.97;17.53;;;;;;;;;;4470063;32;20196;-87
2022/11/12 09:43:49;;;;;;;31.63;20.63;;;;;;;;;;4469646;32;20234;-87
2022/11/12 09:46:31;;;;;;;19.87;10.43;;;;;;;;;;4469839;32;20322;-87
2022/11/12 09:49:06;;;;;;;28.27;17.77;;;;;;;;;;4469649;32;20223;-87
2022/11/12 09:51:38;;;;;;;19.47;12.77;;;;;;;;;;4469932;32;20612;-86
2022/11/12 09:54:29;;;;;;;12.97;9.07;;;;;;;;;;4469151;32;20276;-86
2022/11/12 09:56:56;;;;;;;20.43;10.20;;;;;;;;;;4469738;32;20278;-86
2022/11/12 09:59:27;;;;;;;18.13;9.87;;;;;;;;;;4469599;32;20549;-86
2022/11/12 10:02:04;;;;;;;11.53;9.60;;;;;;;;;;4469883;32;20196;-87
2022/11/12 10:04:58;;;;;;;31.90;17.67;;;;;;;;;;4469252;32;20216;-85
2022/11/12 10:07:43;;;;;;;9.40;6.67;;;;;;;;;;4469424;32;20215;-87
2022/11/12 10:10:15;;;;;;;13.37;7.37;;;;;;;;;;4469568;32;20200;-86
2022/11/12 10:12:58;;;;;;;12.87;8.47;;;;;;;;;;4468294;32;20216;-87
2022/11/12 10:18:48;;;;;;;9.10;6.13;;;;;;;;;;4469553;32;20226;-86
2022/11/12 10:21:23;;;;;;;9.80;6.70;;;;;;;;;;4469333;32;20200;-86
2022/11/12 10:23:54;;;;;;;7.37;5.80;;;;;;;;;;4469168;32;20230;-87
2022/11/12 10:26:26;;;;;;;13.00;9.50;;;;;;;;;;4469282;32;20212;-87
2022/11/12 10:29:02;;;;;;;17.30;12.27;;;;;;;;;;4468919;32;20215;-87
2022/11/12 10:31:31;;;;;;;15.90;11.63;;;;;;;;;;4469552;32;20204;-86
2022/11/12 10:34:17;;;;;;;15.20;10.33;;;;;;;;;;4468759;32;20240;-87
2022/11/12 10:36:51;;;;;;;11.63;7.17;;;;;;;;;;4470090;32;20211;-86
2022/11/12 10:39:36;;;;;;;12.57;7.77;;;;;;;;;;4467776;32;20241;-87
2022/11/12 10:42:06;;;;;;;13.30;9.10;;;;;;;;;;4468980;32;20257;-86
2022/11/12 10:44:33;;;;;;;11.40;6.60;;;;;;;;;;4467686;32;20200;-87
2022/11/12 10:47:28;;;;;;;10.97;7.60;;;;;;;;;;4468898;32;20580;-86
2022/11/12 10:50:18;;;;;;;10.67;6.80;;;;;;;;;;4469481;32;20231;-87
2022/11/12 10:53:04;;;;;;;10.73;7.23;;;;;;;;;;4468781;32;20668;-86
2022/11/12 10:55:34;;;;;;;13.53;6.70;;;;;;;;;;4468911;32;20218;-87
2022/11/12 10:58:19;;;;;;;9.60;5.20;;;;;;;;;;4468878;32;20242;-87
2022/11/12 11:00:58;;;;;;;9.90;6.37;;;;;;;;;;4468648;32;20351;-86
2022/11/12 11:03:27;;;;;;;8.00;7.03;;;;;;;;;;4467544;32;20246;-87
2022/11/12 11:05:58;;;;;;;15.40;7.77;;;;;;;;;;4469134;32;20207;-86
2022/11/12 11:08:34;;;;;;;14.57;9.40;;;;;;;;;;4469072;32;20231;-86
2022/11/12 11:11:32;;;;;;;19.70;10.83;;;;;;;;;;4468658;32;20199;-87
2022/11/12 11:14:24;;;;;;;11.07;7.17;;;;;;;;;;4468704;32;20239;-87
2022/11/12 11:16:54;;;;;;;9.30;6.80;;;;;;;;;;4469278;32;20652;-88
2022/11/12 11:19:21;;;;;;;9.10;5.90;;;;;;;;;;4468505;32;20212;-87
2022/11/12 11:22:00;;;;;;;12.00;5.17;;;;;;;;;;4467494;32;20203;-87
2022/11/12 11:24:37;;;;;;;5.53;4.10;;;;;;;;;;4469151;32;20212;-86
2022/11/12 11:27:24;;;;;;;6.20;4.60;;;;;;;;;;4468429;32;20607;-87
2022/11/12 11:30:05;;;;;;;6.20;4.57;;;;;;;;;;4467741;32;20204;-87
2022/11/12 11:32:56;;;;;;;14.00;5.97;;;;;;;;;;4468683;32;20208;-86
2022/11/12 11:35:42;;;;;;;17.07;6.37;;;;;;;;;;4468935;32;20196;-87
2022/11/12 11:38:24;;;;;;;15.93;7.80;;;;;;;;;;4468445;32;20265;-87
2022/11/12 11:41:10;;;;;;;7.67;5.87;;;;;;;;;;4468994;32;20192;-87
2022/11/12 11:43:57;;;;;;;15.37;6.93;;;;;;;;;;4468673;32;20219;-87
2022/11/12 11:46:42;;;;;;;8.30;4.57;;;;;;;;;;4469443;32;20605;-86
2022/11/12 11:49:28;;;;;;;12.00;4.73;;;;;;;;;;4468232;32;20224;-87
2022/11/12 11:52:02;;;;;;;6.63;5.13;;;;;;;;;;4468905;32;20240;-86
2022/11/12 11:54:43;;;;;;;8.50;5.10;;;;;;;;;;4468235;32;20230;-87
2022/11/12 11:57:13;;;;;;;22.47;9.27;;;;;;;;;;4468777;32;20750;-87
2022/11/12 11:59:57;;;;;;;27.80;15.33;;;;;;;;;;4468047;32;20208;-87
2022/11/12 12:03:03;;;;;;;70.43;29.30;;;;;;;;;;4468938;32;20538;-86
2022/11/12 12:05:40;;;;;;;27.53;13.73;;;;;;;;;;4468041;32;20218;-87
2022/11/12 12:08:11;;;;;;;28.20;15.50;;;;;;;;;;4468404;32;20216;-87
2022/11/12 12:10:48;;;;;;;19.83;12.57;;;;;;;;;;4468721;32;20231;-87
2022/11/12 12:13:27;;;;;;;16.53;10.93;;;;;;;;;;4468711;32;20238;-87
2022/11/12 12:16:17;;;;;;;15.43;8.13;;;;;;;;;;4468516;32;20652;-87
2022/11/12 12:18:52;;;;;;;27.60;15.43;;;;;;;;;;4467971;32;20250;-86
2022/11/12 12:21:26;;;;;;;18.83;12.80;;;;;;;;;;4468585;32;20306;-86
2022/11/12 12:24:03;;;;;;;21.03;10.53;;;;;;;;;;4468704;32;20260;-87
2022/11/12 12:26:37;;;;;;;18.93;9.70;;;;;;;;;;4467955;32;20211;-87
2022/11/12 12:29:08;;;;;;;22.27;10.07;;;;;;;;;;4468046;32;20209;-87
2022/11/12 12:31:41;;;;;;;16.43;9.83;;;;;;;;;;4468406;32;20208;-87
2022/11/12 12:34:18;;;;;;;17.03;11.43;;;;;;;;;;4467772;32;20589;-87
2022/11/12 12:36:50;;;;;;;12.27;7.63;;;;;;;;;;4467892;32;20565;-86
2022/11/12 12:39:25;;;;;;;17.93;9.63;;;;;;;;;;4469730;32;20220;-87
2022/11/12 12:41:56;;;;;;;18.77;13.63;;;;;;;;;;4471275;32;20620;-87
2022/11/12 12:44:58;;;;;;;30.90;21.43;;;;;;;;;;4470760;32;20204;-86
2022/11/12 12:47:13;;;;;;;41.17;22.27;;;;;;;;;;4470499;32;20227;-86
2022/11/12 12:49:41;;;;;;;24.87;13.90;;;;;;;;;;4471236;32;20574;-87
2022/11/12 12:52:12;;;;;;;48.20;23.73;;;;;;;;;;4471101;32;20272;-88
2022/11/12 12:54:57;;;;;;;38.67;22.33;;;;;;;;;;4470072;32;20212;-88
2022/11/12 12:57:36;;;;;;;42.90;23.63;;;;;;;;;;4471046;32;20264;-86
2022/11/12 13:00:29;;;;;;;61.77;29.83;;;;;;;;;;4470543;32;20591;-86
2022/11/12 13:03:05;;;;;;;56.20;25.43;;;;;;;;;;4470316;32;20299;-88
2022/11/12 13:05:34;;;;;;;33.30;15.97;;;;;;;;;;4470794;32;20203;-86
2022/11/12 13:08:05;;;;;;;25.27;12.33;;;;;;;;;;4470084;32;20584;-85
2022/11/12 13:10:54;;;;;;;13.83;9.27;;;;;;;;;;4470733;32;20264;-86
2022/11/12 13:13:33;;;;;;;41.17;18.40;;;;;;;;;;4470019;32;20260;-88
2022/11/12 13:16:02;;;;;;;20.10;13.23;;;;;;;;;;4470019;32;20239;-88
2022/11/12 13:18:59;;;;;;;31.57;18.13;;;;;;;;;;4469035;32;20227;-87
2022/11/12 13:21:26;;;;;;;37.33;21.20;;;;;;;;;;4465515;32;20248;-88
2022/11/12 13:24:07;;;;;;;30.10;18.80;;;;;;;;;;4469891;32;20281;-86
2022/11/12 13:26:52;;;;;;;34.97;22.30;;;;;;;;;;4470144;32;20234;-88
2022/11/12 13:29:23;;;;;;;27.43;17.93;;;;;;;;;;4469771;32;20219;-86
2022/11/12 13:32:30;;;;;;;21.63;11.50;;;;;;;;;;4470002;32;20216;-86
2022/11/12 13:35:29;;;;;;;35.93;19.63;;;;;;;;;;4469857;32;20599;-86
2022/11/12 13:38:00;;;;;;;15.33;9.73;;;;;;;;;;4469951;32;20291;-84
2022/11/12 13:40:39;;;;;;;10.07;8.27;;;;;;;;;;4470265;32;20305;-86
2022/11/12 13:43:18;;;;;;;25.83;15.03;;;;;;;;;;4469900;32;20211;-86
2022/11/12 13:45:49;;;;;;;23.30;14.13;;;;;;;;;;4469814;32;20249;-85
2022/11/12 13:48:25;;;;;;;17.80;11.97;;;;;;;;;;4469549;32;20736;-87
2022/11/12 13:50:58;;;;;;;22.17;12.63;;;;;;;;;;4469462;32;20562;-86
2022/11/12 13:53:27;;;;;;;31.63;17.87;;;;;;;;;;4469146;32;20602;-88
2022/11/12 13:55:55;;;;;;;13.67;8.97;;;;;;;;;;4470133;32;20200;-86
2022/11/12 13:58:33;;;;;;;9.50;6.63;;;;;;;;;;4469449;32;20527;-85
2022/11/12 14:01:04;;;;;;;32.30;20.07;;;;;;;;;;4469876;32;20219;-85
2022/11/12 14:03:38;;;;;;;62.27;31.13;;;;;;;;;;4469495;32;20287;-85
2022/11/12 14:06:16;;;;;;;62.80;31.37;;;;;;;;;;4468802;32;20199;-87
2022/11/12 14:09:08;;;;;;;13.93;9.97;;;;;;;;;;4469167;32;20227;-88
2022/11/12 14:11:56;;;;;;;13.90;9.67;;;;;;;;;;4470013;32;20196;-88
2022/11/12 14:14:41;;;;;;;11.57;8.60;;;;;;;;;;4469255;32;20261;-85
2022/11/12 14:17:21;;;;;;;34.03;17.97;;;;;;;;;;4469550;32;20284;-86
2022/11/12 14:20:06;;;;;;;15.87;11.10;;;;;;;;;;4469343;32;20248;-87
2022/11/12 14:22:48;;;;;;;16.43;9.23;;;;;;;;;;4469567;32;20219;-85
2022/11/12 14:25:19;;;;;;;12.60;8.53;;;;;;;;;;4468919;32;20254;-85
2022/11/12 14:27:47;;;;;;;18.37;10.83;;;;;;;;;;4469289;32;20299;-85
2022/11/12 14:30:21;;;;;;;22.83;13.60;;;;;;;;;;4469315;32;20272;-85
2022/11/12 14:32:49;;;;;;;15.77;10.83;;;;;;;;;;4469309;32;20291;-85
2022/11/12 14:35:22;;;;;;;40.83;26.20;;;;;;;;;;4467793;32;20779;-87
2022/11/12 14:37:54;;;;;;;27.30;17.90;;;;;;;;;;4469636;32;20231;-87
2022/11/12 14:40:26;;;;;;;23.07;12.73;;;;;;;;;;4468840;32;20220;-87
2022/11/12 14:42:56;;;;;;;25.00;16.13;;;;;;;;;;4469284;32;20203;-85
2022/11/12 14:45:24;;;;;;;23.27;15.37;;;;;;;;;;4468940;32;20295;-87
2022/11/12 14:47:53;;;;;;;16.80;13.70;;;;;;;;;;4469095;32;20252;-85
2022/11/12 14:50:25;;;;;;;30.27;18.77;;;;;;;;;;4468703;32;20216;-86
2022/11/12 14:52:57;;;;;;;34.60;21.40;;;;;;;;;;4468884;32;20228;-88
2022/11/12 14:55:30;;;;;;;30.97;18.47;;;;;;;;;;4468703;32;20276;-86
2022/11/12 14:57:58;;;;;;;21.70;14.53;;;;;;;;;;4469812;32;20275;-87
2022/11/12 15:00:45;;;;;;;35.83;20.63;;;;;;;;;;4469361;32;20224;-85
2022/11/12 15:03:16;;;;;;;25.73;19.77;;;;;;;;;;4469343;32;20636;-85
2022/11/12 15:05:59;;;;;;;46.37;32.47;;;;;;;;;;4468968;32;20216;-87
2022/11/12 15:08:33;;;;;;;34.53;20.33;;;;;;;;;;4468716;32;20238;-86
2022/11/12 15:11:20;;;;;;;35.97;23.97;;;;;;;;;;4468599;32;20622;-86
2022/11/12 15:13:49;;;;;;;29.43;16.77;;;;;;;;;;4469034;32;20286;-86
2022/11/12 15:16:23;;;;;;;20.20;13.73;;;;;;;;;;4468901;32;20266;-84
2022/11/12 15:19:09;;;;;;;29.57;16.43;;;;;;;;;;4469032;32;20203;-87
2022/11/12 15:21:37;;;;;;;25.27;17.27;;;;;;;;;;4468839;32;20204;-86
2022/11/12 15:24:19;;;;;;;30.17;14.37;;;;;;;;;;4468759;32;20211;-86